Time;durP1;ratioP1;P1;durP2;ratioP2;P2;SDS_P1;SDS_P2;PMS_P1;PMS_P2;Temp;Humidity;BMP_temperature;BMP_pressure;BME280_temperature;BME280_humidity;BME280_pressure;Samples;Min_cycle;Max_cycle;Signal;HPM_P1;HPM_P2
2023/06/10 07:42:46;;;;;;;14.00;7.47;;;21.20;58.40;;;;;;4971439;28;20265;-80
2023/06/10 07:45:13;;;;;;;10.50;6.82;;;21.20;58.30;;;;;;4973099;28;20736;-84
2023/06/10 07:47:40;;;;;;;15.90;8.43;;;21.20;58.40;;;;;;4972547;28;20313;-80
2023/06/10 07:50:07;;;;;;;15.13;8.40;;;21.20;58.40;;;;;;4973474;28;20294;-80
2023/06/10 07:52:34;;;;;;;10.23;7.20;;;21.10;58.30;;;;;;4972787;28;20662;-80
2023/06/10 07:55:01;;;;;;;12.50;6.95;;;21.20;58.40;;;;;;4973200;28;20218;-80
2023/06/10 07:57:28;;;;;;;11.57;7.35;;;21.20;59.00;;;;;;4973533;28;20254;-80
2023/06/10 07:59:57;;;;;;;14.13;7.18;;;21.20;58.40;;;;;;4973174;28;20278;-80
2023/06/10 08:02:24;;;;;;;14.88;8.00;;;21.20;59.00;;;;;;4972886;28;20250;-80
2023/06/10 08:04:51;;;;;;;13.50;7.35;;;21.20;58.40;;;;;;4973267;28;20290;-80
2023/06/10 08:07:18;;;;;;;11.43;7.32;;;21.20;58.40;;;;;;4973364;28;20306;-80
2023/06/10 08:09:45;;;;;;;13.40;7.93;;;21.20;58.40;;;;;;4972952;28;20247;-80
2023/06/10 08:12:12;;;;;;;12.32;7.40;;;21.20;58.50;;;;;;4973155;28;20258;-80
2023/06/10 08:14:39;;;;;;;12.68;7.60;;;21.10;58.40;;;;;;4972749;28;20309;-80
2023/06/10 08:17:07;;;;;;;12.25;7.78;;;21.20;58.50;;;;;;4972302;28;20306;-82
2023/06/10 08:19:34;;;;;;;14.05;7.50;;;21.20;58.50;;;;;;4974792;28;20225;-86
2023/06/10 08:22:01;;;;;;;11.18;7.10;;;21.20;58.50;;;;;;4976821;28;20314;-84
2023/06/10 08:24:28;;;;;;;16.35;8.40;;;21.20;58.50;;;;;;4976254;28;20199;-85
2023/06/10 08:26:56;;;;;;;13.23;7.57;;;21.20;58.50;;;;;;4976787;28;20884;-82
2023/06/10 08:29:24;;;;;;;13.90;8.40;;;21.20;58.60;;;;;;4976435;28;20691;-83
2023/06/10 08:31:51;;;;;;;12.38;7.05;;;21.20;58.60;;;;;;4976386;28;20230;-82
2023/06/10 08:34:19;;;;;;;13.57;7.88;;;21.20;58.60;;;;;;4976260;28;20214;-82
2023/06/10 08:36:46;;;;;;;14.68;7.60;;;21.20;58.60;;;;;;4976667;28;20311;-85
2023/06/10 08:39:13;;;;;;;14.80;7.63;;;21.20;58.70;;;;;;4976600;28;20282;-83
2023/06/10 08:41:44;;;;;;;10.50;7.40;;;21.20;58.70;;;;;;4976221;28;20272;-85
2023/06/10 08:44:18;;;;;;;12.77;7.20;;;21.20;58.60;;;;;;4976297;28;20278;-83
2023/06/10 08:46:46;;;;;;;11.98;7.25;;;21.20;58.70;;;;;;4975656;28;20693;-80
2023/06/10 08:49:20;;;;;;;13.73;7.13;;;21.20;58.70;;;;;;4976017;28;20649;-80
2023/06/10 08:51:50;;;;;;;12.05;7.40;;;21.20;58.70;;;;;;4976087;28;20306;-80
2023/06/10 08:54:21;;;;;;;12.63;7.40;;;21.20;58.70;;;;;;4975839;28;20309;-80
2023/06/10 08:56:51;;;;;;;12.63;7.10;;;21.20;58.80;;;;;;4975971;28;20656;-80
2023/06/10 08:59:19;;;;;;;12.60;7.25;;;21.20;59.40;;;;;;4976129;28;20187;-80
2023/06/10 09:01:46;;;;;;;10.82;7.25;;;21.20;58.80;;;;;;4975721;28;20254;-81
2023/06/10 09:04:13;;;;;;;13.98;7.38;;;21.20;58.80;;;;;;4975903;28;20636;-80
2023/06/10 09:06:42;;;;;;;13.68;7.57;;;21.20;58.80;;;;;;4975666;28;20317;-80
2023/06/10 09:09:08;;;;;;;11.70;7.38;;;21.20;58.80;;;;;;4976316;28;20237;-80
2023/06/10 09:11:35;;;;;;;12.80;6.53;;;21.20;58.80;;;;;;4975950;28;20307;-80
2023/06/10 09:14:02;;;;;;;17.00;7.80;;;21.20;58.80;;;;;;4975424;28;20254;-80
2023/06/10 09:16:29;;;;;;;14.00;8.15;;;21.20;58.80;;;;;;4975174;28;20219;-80
2023/06/10 09:18:56;;;;;;;11.32;7.75;;;21.20;58.80;;;;;;4975595;28;20649;-80
2023/06/10 09:21:23;;;;;;;11.13;7.65;;;21.20;58.90;;;;;;4975624;28;20284;-80
2023/06/10 09:23:52;;;;;;;14.05;8.32;;;21.20;58.90;;;;;;4975767;28;20659;-81
2023/06/10 09:26:20;;;;;;;13.68;7.90;;;21.20;58.90;;;;;;4975603;28;20675;-80
2023/06/10 09:28:49;;;;;;;15.52;8.30;;;21.20;58.90;;;;;;4975679;28;20199;-80
2023/06/10 09:31:18;;;;;;;12.35;8.63;;;21.20;58.90;;;;;;4974333;28;20226;-80
2023/06/10 09:33:46;;;;;;;15.13;8.05;;;21.20;58.90;;;;;;4975390;28;20247;-80
2023/06/10 09:36:22;;;;;;;13.85;8.70;;;21.20;59.00;;;;;;4975476;28;20301;-80
2023/06/10 09:38:52;;;;;;;14.88;8.20;;;21.20;59.00;;;;;;4975331;28;20194;-80
2023/06/10 09:41:19;;;;;;;18.58;8.07;;;21.20;59.00;;;;;;4974792;28;20238;-80
2023/06/10 09:43:48;;;;;;;13.68;8.45;;;21.20;59.00;;;;;;4975108;28;20748;-80
2023/06/10 09:46:17;;;;;;;12.05;7.40;;;21.20;59.10;;;;;;4974629;28;20219;-79
2023/06/10 09:48:45;;;;;;;11.93;7.85;;;21.20;59.10;;;;;;4974778;28;20573;-80
2023/06/10 09:51:13;;;;;;;16.67;8.23;;;21.20;59.10;;;;;;4974876;28;20254;-81
2023/06/10 09:53:40;;;;;;;13.38;8.57;;;21.20;59.10;;;;;;4974834;28;20277;-80
2023/06/10 09:56:08;;;;;;;12.93;8.77;;;21.20;59.20;;;;;;4974672;28;20221;-80
2023/06/10 09:58:37;;;;;;;12.25;7.78;;;21.20;59.20;;;;;;4974635;28;20191;-80
2023/06/10 10:01:06;;;;;;;15.57;8.55;;;21.20;59.10;;;;;;4974516;28;20222;-80
2023/06/10 10:03:33;;;;;;;14.93;8.48;;;21.20;59.30;;;;;;4974891;28;20282;-80
2023/06/10 10:06:00;;;;;;;13.68;8.07;;;21.20;59.20;;;;;;4974785;28;20645;-80
2023/06/10 10:08:27;;;;;;;19.52;8.32;;;21.20;59.20;;;;;;4974837;28;20203;-80
2023/06/10 10:10:54;;;;;;;14.77;8.95;;;21.20;59.30;;;;;;4974909;28;20310;-80
2023/06/10 10:13:24;;;;;;;14.75;8.13;;;21.20;59.30;;;;;;4974829;28;20609;-80
2023/06/10 10:15:51;;;;;;;14.35;8.95;;;21.20;59.30;;;;;;4973991;28;20254;-80
2023/06/10 10:18:22;;;;;;;15.30;8.35;;;21.20;59.30;;;;;;4974576;28;20198;-80
2023/06/10 10:20:54;;;;;;;12.82;8.13;;;21.20;59.30;;;;;;4974232;28;20640;-80
2023/06/10 10:23:29;;;;;;;12.20;8.10;;;21.20;59.30;;;;;;4974569;28;20206;-80
2023/06/10 10:25:58;;;;;;;13.68;9.05;;;21.20;59.30;;;;;;4974677;28;20313;-80
2023/06/10 10:28:35;;;;;;;12.07;8.55;;;21.20;59.30;;;;;;4974479;28;20270;-80
2023/06/10 10:31:10;;;;;;;12.02;8.02;;;21.20;59.30;;;;;;4973670;28;20218;-80
2023/06/10 10:33:45;;;;;;;13.65;8.10;;;21.20;59.40;;;;;;4974221;28;20675;-81
2023/06/10 10:36:13;;;;;;;14.82;8.27;;;21.20;59.40;;;;;;4974441;28;20253;-81
2023/06/10 10:38:40;;;;;;;14.73;8.82;;;21.20;59.40;;;;;;4974312;28;20233;-80
2023/06/10 10:41:07;;;;;;;15.40;9.23;;;21.20;59.50;;;;;;4973911;28;20342;-80
2023/06/10 10:43:36;;;;;;;13.43;8.13;;;21.20;59.50;;;;;;4973668;28;20199;-80
2023/06/10 10:46:07;;;;;;;12.77;7.90;;;21.20;59.50;;;;;;4973624;28;20219;-80
2023/06/10 10:48:37;;;;;;;15.93;9.10;;;21.20;59.50;;;;;;4974057;28;20269;-80
2023/06/10 10:51:04;;;;;;;12.75;8.50;;;21.20;59.50;;;;;;4974007;28;20306;-80
2023/06/10 10:53:31;;;;;;;14.70;8.35;;;21.20;59.50;;;;;;4973949;28;20524;-80
2023/06/10 10:56:05;;;;;;;14.43;8.80;;;21.20;59.50;;;;;;4973782;28;20332;-80
2023/06/10 10:58:32;;;;;;;14.70;8.45;;;21.20;59.60;;;;;;4973501;28;20657;-80
2023/06/10 11:01:10;;;;;;;15.10;9.60;;;21.20;59.50;;;;;;4972963;28;20586;-80
2023/06/10 11:03:43;;;;;;;15.40;8.80;;;21.20;59.60;;;;;;4973340;28;20281;-81
2023/06/10 11:06:14;;;;;;;12.90;8.70;;;21.20;59.60;;;;;;4973882;28;20301;-80
2023/06/10 11:08:48;;;;;;;15.57;8.65;;;21.20;59.60;;;;;;4973549;28;20657;-80
2023/06/10 11:11:20;;;;;;;12.07;7.97;;;21.20;60.30;;;;;;4974046;28;20232;-80
2023/06/10 11:14:00;;;;;;;15.10;8.93;;;21.20;59.60;;;;;;4974138;28;20194;-80
2023/06/10 11:16:30;;;;;;;16.92;9.25;;;21.20;59.60;;;;;;4972935;28;20596;-80
2023/06/10 11:18:58;;;;;;;13.75;8.68;;;21.20;59.60;;;;;;4973969;28;20241;-80
2023/06/10 11:21:25;;;;;;;15.07;9.35;;;21.20;59.60;;;;;;4973456;28;20775;-80
2023/06/10 11:23:52;;;;;;;17.00;9.18;;;21.20;59.70;;;;;;4973784;28;20203;-80
2023/06/10 11:26:34;;;;;;;14.02;8.60;;;21.20;59.60;;;;;;4973518;28;20665;-80
2023/06/10 11:29:11;;;;;;;14.35;9.07;;;21.20;59.70;;;;;;4973698;28;20197;-80
2023/06/10 11:31:57;;;;;;;16.92;9.48;;;21.20;59.70;;;;;;4973070;28;20250;-84
2023/06/10 11:34:26;;;;;;;16.08;9.10;;;21.20;59.80;;;;;;4973726;28;20229;-80
2023/06/10 11:36:54;;;;;;;10.95;8.00;;;21.20;59.80;;;;;;4973090;28;20223;-82
2023/06/10 11:39:23;;;;;;;21.30;10.10;;;21.20;59.80;;;;;;4973650;28;20285;-87
2023/06/10 11:41:52;;;;;;;24.10;10.02;;;21.30;60.10;;;;;;4972976;28;20245;-81
2023/06/10 11:44:19;;;;;;;21.23;9.48;;;21.30;60.50;;;;;;4972782;28;20207;-80
2023/06/10 11:46:48;;;;;;;23.00;10.13;;;21.40;61.70;;;;;;4973153;28;20309;-79
2023/06/10 11:49:16;;;;;;;20.13;9.32;;;21.40;61.20;;;;;;4972496;28;20266;-78
2023/06/10 11:51:49;;;;;;;20.35;10.25;;;21.50;61.30;;;;;;4973078;28;20253;-82
2023/06/10 11:54:17;;;;;;;22.20;10.48;;;21.50;61.40;;;;;;4974142;28;20568;-79
2023/06/10 11:56:44;;;;;;;20.95;10.88;;;21.60;61.60;;;;;;4976520;28;20720;-77
2023/06/10 11:59:11;;;;;;;25.23;11.52;;;21.60;61.90;;;;;;4976578;28;20278;-78
2023/06/10 12:01:42;;;;;;;20.52;10.25;;;21.70;62.10;;;;;;4977000;28;20263;-75
2023/06/10 12:04:11;;;;;;;25.73;11.27;;;21.80;62.90;;;;;;4966181;28;20225;-80
2023/06/10 12:06:47;;;;;;;24.23;11.40;;;21.80;61.90;;;;;;4964249;28;20313;-79
2023/06/10 12:09:16;;;;;;;19.20;9.82;;;21.90;61.90;;;;;;4970899;28;20579;-82
2023/06/10 12:11:44;;;;;;;21.60;10.18;;;22.00;62.50;;;;;;4961558;28;20229;-82
2023/06/10 12:14:11;;;;;;;26.13;10.32;;;22.00;62.70;;;;;;4970192;28;20210;-84
2023/06/10 12:16:40;;;;;;;32.47;14.02;;;22.10;62.50;;;;;;4977786;28;20217;-87
2023/06/10 12:19:07;;;;;;;30.42;13.75;;;22.20;63.40;;;;;;4974427;28;20218;-83
2023/06/10 12:21:38;;;;;;;36.80;14.90;;;22.20;62.60;;;;;;4971888;28;20233;-88
2023/06/10 12:24:11;;;;;;;52.83;14.77;;;22.20;62.70;;;;;;4971652;28;20213;-81
2023/06/10 12:26:42;;;;;;;44.47;18.00;;;22.30;62.80;;;;;;4973844;28;20325;-81
2023/06/10 12:29:20;;;;;;;46.75;17.38;;;22.30;62.70;;;;;;4970498;28;20238;-80
2023/06/10 12:31:54;;;;;;;63.72;18.13;;;22.40;64.60;;;;;;4971081;28;20277;-83
2023/06/10 12:34:29;;;;;;;51.33;19.02;;;22.40;63.90;;;;;;4969790;28;20281;-86
2023/06/10 12:36:55;;;;;;;45.17;17.65;;;22.50;64.00;;;;;;4969464;28;20222;-90
2023/06/10 12:39:24;;;;;;;45.65;15.73;;;22.50;64.20;;;;;;4971413;28;20234;-87
2023/06/10 12:41:52;;;;;;;39.83;17.17;;;22.50;64.00;;;;;;4964746;28;20325;-88
2023/06/10 12:44:28;;;;;;;43.70;18.25;;;22.60;63.80;;;;;;4977051;28;20253;-78
2023/06/10 12:46:56;;;;;;;47.50;16.83;;;22.60;64.70;;;;;;4973208;28;20422;-86
2023/06/10 12:49:22;;;;;;;48.28;18.05;;;22.70;63.40;;;;;;4973246;28;20198;-79
2023/06/10 12:51:49;;;;;;;57.05;20.00;;;22.70;63.10;;;;;;4974527;28;20218;-80
2023/06/10 12:54:16;;;;;;;39.17;16.30;;;22.70;63.00;;;;;;4962733;28;20290;-77
2023/06/10 12:56:45;;;;;;;42.20;18.10;;;22.70;63.00;;;;;;4972681;28;20264;-86
2023/06/10 12:59:12;;;;;;;48.85;20.95;;;22.70;62.90;;;;;;4960787;28;20224;-82
2023/06/10 13:01:39;;;;;;;115.95;35.05;;;22.70;62.60;;;;;;4972940;28;20635;-77
2023/06/10 13:04:09;;;;;;;53.13;22.23;;;22.70;62.60;;;;;;4968922;28;20183;-80
2023/06/10 13:06:38;;;;;;;60.20;23.02;;;22.70;62.30;;;;;;4971953;28;20219;-79
2023/06/10 13:09:08;;;;;;;48.92;21.50;;;22.70;62.50;;;;;;4971059;28;20238;-82
2023/06/10 13:11:36;;;;;;;55.30;19.90;;;22.70;62.50;;;;;;4969277;28;20305;-81
2023/06/10 13:14:06;;;;;;;46.65;17.48;;;22.70;62.20;;;;;;4971712;28;20291;-82
2023/06/10 13:16:33;;;;;;;39.53;17.35;;;22.70;62.40;;;;;;4969190;28;20265;-80
2023/06/10 13:19:02;;;;;;;38.10;16.52;;;22.70;63.00;;;;;;4959472;28;20289;-82
2023/06/10 13:21:29;;;;;;;34.92;13.90;;;22.70;63.00;;;;;;4963782;28;20298;-75
2023/06/10 13:24:02;;;;;;;33.35;14.02;;;22.70;63.10;;;;;;4968104;28;20641;-76
2023/06/10 13:26:29;;;;;;;30.80;14.07;;;22.80;63.10;;;;;;4928423;28;20277;-78
2023/06/10 13:28:56;;;;;;;36.47;13.63;;;22.80;63.00;;;;;;4964519;28;20619;-77
2023/06/10 13:31:24;;;;;;;28.23;13.75;;;22.80;63.10;;;;;;4968332;28;20229;-77
2023/06/10 13:33:51;;;;;;;35.95;13.45;;;22.80;63.20;;;;;;4969719;28;20286;-81
2023/06/10 13:36:18;;;;;;;29.83;13.88;;;22.80;63.50;;;;;;4968035;28;20559;-81
2023/06/10 13:38:45;;;;;;;31.10;14.10;;;22.80;64.20;;;;;;4969286;28;20286;-81
2023/06/10 13:41:12;;;;;;;39.30;14.73;;;22.80;63.60;;;;;;4967702;28;20246;-83
2023/06/10 13:43:39;;;;;;;29.40;12.70;;;22.90;63.70;;;;;;4968389;28;20210;-79
2023/06/10 13:46:06;;;;;;;27.75;13.40;;;22.90;64.00;;;;;;4969383;28;20261;-77
2023/06/10 13:48:36;;;;;;;22.83;12.40;;;22.90;64.20;;;;;;4963669;28;20194;-77
2023/06/10 13:51:03;;;;;;;29.00;13.07;;;23.00;63.50;;;;;;4930630;28;20649;-85
2023/06/10 13:53:30;;;;;;;30.15;13.45;;;23.00;63.50;;;;;;4969162;28;20214;-77
2023/06/10 13:55:57;;;;;;;24.67;12.80;;;23.00;63.40;;;;;;4966468;28;20342;-77
2023/06/10 13:58:24;;;;;;;29.40;13.10;;;23.00;63.40;;;;;;4967526;28;20288;-77
2023/06/10 14:00:51;;;;;;;28.23;13.05;;;23.00;64.20;;;;;;4967428;28;20217;-79
2023/06/10 14:03:18;;;;;;;29.92;12.63;;;23.00;64.30;;;;;;4969221;28;20237;-77
2023/06/10 14:05:48;;;;;;;22.60;11.80;;;23.00;63.50;;;;;;4970003;28;20289;-83
2023/06/10 14:08:15;;;;;;;24.02;11.80;;;23.10;63.50;;;;;;4969845;28;20226;-75
2023/06/10 14:10:42;;;;;;;28.75;11.82;;;23.10;63.50;;;;;;4963015;28;20262;-76
2023/06/10 14:13:10;;;;;;;21.10;11.43;;;23.10;63.50;;;;;;4970270;28;20285;-78
2023/06/10 14:15:36;;;;;;;26.83;12.20;;;23.10;63.50;;;;;;4969427;28;20254;-78
2023/06/10 14:18:25;;;;;;;19.25;11.57;;;23.10;63.50;;;;;;4968476;28;20223;-79
2023/06/10 14:20:53;;;;;;;24.52;12.50;;;23.10;63.50;;;;;;4970514;28;20195;-78
2023/06/10 14:23:20;;;;;;;26.73;13.20;;;23.10;63.50;;;;;;4965584;28;20242;-81
2023/06/10 14:25:48;;;;;;;23.27;12.48;;;23.10;63.20;;;;;;4965496;28;20281;-81
2023/06/10 14:28:15;;;;;;;33.75;15.05;;;23.10;63.20;;;;;;4965097;28;20227;-78
2023/06/10 14:30:42;;;;;;;31.95;14.60;;;23.10;63.20;;;;;;4970659;28;20556;-77
2023/06/10 14:33:09;;;;;;;26.33;13.05;;;23.10;64.00;;;;;;4964987;28;20222;-76
2023/06/10 14:35:36;;;;;;;23.08;11.50;;;23.20;63.50;;;;;;4965291;28;20701;-80
2023/06/10 14:38:04;;;;;;;18.75;11.25;;;23.20;63.30;;;;;;4967289;28;20265;-80
2023/06/10 14:40:31;;;;;;;22.58;11.00;;;23.20;63.10;;;;;;4965255;28;21167;-80
2023/06/10 14:43:00;;;;;;;26.27;11.23;;;23.20;63.00;;;;;;4963653;28;21044;-78
2023/06/10 14:45:27;;;;;;;22.80;10.07;;;23.30;63.40;;;;;;4967573;28;20203;-82
2023/06/10 14:47:54;;;;;;;29.33;10.98;;;23.30;63.00;;;;;;4967852;28;20273;-80
2023/06/10 14:50:23;;;;;;;25.08;12.27;;;23.30;63.10;;;;;;4958886;28;20206;-76
2023/06/10 14:52:51;;;;;;;29.92;13.05;;;23.30;63.00;;;;;;4958248;28;20219;-84
2023/06/10 14:55:20;;;;;;;27.13;11.48;;;23.30;63.00;;;;;;4963598;28;20278;-78
2023/06/10 14:57:47;;;;;;;20.58;9.65;;;23.30;63.10;;;;;;4963246;28;20285;-83
2023/06/10 15:00:19;;;;;;;19.60;9.77;;;23.30;63.30;;;;;;4961816;28;20249;-85
2023/06/10 15:02:47;;;;;;;20.27;9.95;;;23.30;63.30;;;;;;4935597;28;20313;-82
2023/06/10 15:05:15;;;;;;;19.08;9.70;;;23.40;63.50;;;;;;4950193;28;20289;-80
2023/06/10 15:07:42;;;;;;;22.33;9.65;;;23.40;63.40;;;;;;4968454;28;20652;-80
2023/06/10 15:10:10;;;;;;;21.42;9.88;;;23.40;63.30;;;;;;4968300;28;20277;-79
2023/06/10 15:12:38;;;;;;;19.70;9.07;;;23.40;63.40;;;;;;4970073;28;20636;-77
2023/06/10 15:15:06;;;;;;;16.65;9.35;;;23.40;63.60;;;;;;4969321;28;20274;-79
2023/06/10 15:17:35;;;;;;;15.45;9.75;;;23.40;63.70;;;;;;4966243;28;20784;-81
2023/06/10 15:20:04;;;;;;;19.38;9.00;;;23.40;63.40;;;;;;4968482;28;20258;-82
2023/06/10 15:22:31;;;;;;;16.90;9.10;;;23.40;63.40;;;;;;4968789;28;20313;-80
2023/06/10 15:24:59;;;;;;;15.40;8.90;;;23.40;63.10;;;;;;4950910;28;20622;-80
2023/06/10 15:27:28;;;;;;;25.25;9.57;;;23.40;63.20;;;;;;4968502;28;20787;-80
2023/06/10 15:29:57;;;;;;;20.80;8.98;;;23.40;63.50;;;;;;4969988;28;20203;-84
2023/06/10 15:32:24;;;;;;;16.92;9.23;;;23.50;63.30;;;;;;4969352;28;20258;-80
2023/06/10 15:34:53;;;;;;;18.02;8.45;;;23.40;63.20;;;;;;4965902;28;20211;-78
2023/06/10 15:37:23;;;;;;;17.25;9.30;;;23.40;63.10;;;;;;4969885;28;20249;-79
2023/06/10 15:39:50;;;;;;;14.75;8.27;;;23.40;63.00;;;;;;4968670;28;20288;-77
2023/06/10 15:42:17;;;;;;;17.30;8.32;;;23.40;62.90;;;;;;4969995;28;20349;-80
2023/06/10 15:44:44;;;;;;;16.25;9.18;;;23.40;62.80;;;;;;4965558;28;20282;-77
2023/06/10 15:47:15;;;;;;;14.90;8.95;;;23.40;62.80;;;;;;4933433;28;20254;-78
2023/06/10 15:49:42;;;;;;;21.08;8.75;;;23.40;62.80;;;;;;4967973;28;20201;-78
2023/06/10 15:52:09;;;;;;;15.43;9.20;;;23.40;62.80;;;;;;4967364;28;20222;-80
2023/06/10 15:54:36;;;;;;;16.17;8.65;;;23.40;62.70;;;;;;4969183;28;20209;-79
2023/06/10 15:57:05;;;;;;;21.05;9.02;;;23.40;62.80;;;;;;4969045;28;20352;-79
2023/06/10 15:59:32;;;;;;;16.98;8.88;;;23.40;62.80;;;;;;4968012;28;20206;-80
2023/06/10 16:01:59;;;;;;;16.25;8.70;;;23.40;62.90;;;;;;4967975;28;20673;-74
2023/06/10 16:04:28;;;;;;;18.38;8.85;;;23.40;62.80;;;;;;4965454;28;20230;-77
2023/06/10 16:06:56;;;;;;;17.55;8.90;;;23.30;62.70;;;;;;4956358;28;20697;-77
2023/06/10 16:09:23;;;;;;;11.80;8.25;;;23.40;62.90;;;;;;4971495;28;20191;-74
2023/06/10 16:11:51;;;;;;;16.05;8.52;;;23.30;62.90;;;;;;4972932;28;20206;-76
2023/06/10 16:14:18;;;;;;;11.43;7.50;;;23.30;63.00;;;;;;4971262;28;20702;-75
2023/06/10 16:16:45;;;;;;;16.98;8.15;;;23.30;63.00;;;;;;4970562;28;20225;-76
2023/06/10 16:19:12;;;;;;;11.90;7.65;;;23.30;63.00;;;;;;4971436;28;20563;-74
2023/06/10 16:21:41;;;;;;;11.98;7.53;;;23.30;63.10;;;;;;4971576;28;20187;-75
2023/06/10 16:24:08;;;;;;;14.98;7.55;;;23.30;63.00;;;;;;4972847;28;20711;-75
2023/06/10 16:26:35;;;;;;;11.25;6.72;;;23.30;63.00;;;;;;4972909;28;20202;-75
2023/06/10 16:29:03;;;;;;;11.82;7.07;;;23.20;62.90;;;;;;4955716;28;20195;-75
2023/06/10 16:31:29;;;;;;;10.57;7.18;;;23.20;62.80;;;;;;4972651;28;20191;-75
2023/06/10 16:33:57;;;;;;;10.68;6.75;;;23.20;62.80;;;;;;4973071;28;20265;-76
2023/06/10 16:36:24;;;;;;;10.65;6.80;;;23.20;62.80;;;;;;4971289;28;20724;-76
2023/06/10 16:38:54;;;;;;;10.63;6.93;;;23.20;62.80;;;;;;4973098;28;20253;-75
2023/06/10 16:41:21;;;;;;;10.60;6.80;;;23.20;62.70;;;;;;4975129;28;20290;-77
2023/06/10 16:43:48;;;;;;;11.45;6.80;;;23.20;62.80;;;;;;4976173;28;20222;-75
2023/06/10 16:46:16;;;;;;;10.10;7.10;;;23.10;62.60;;;;;;4976100;28;20774;-75
2023/06/10 16:48:44;;;;;;;8.27;6.50;;;23.10;62.50;;;;;;4976620;28;20225;-75
2023/06/10 16:51:11;;;;;;;8.82;6.88;;;23.10;62.50;;;;;;4976032;28;20187;-75
2023/06/10 16:53:38;;;;;;;12.93;6.50;;;23.10;62.50;;;;;;4976325;28;20219;-75
2023/06/10 16:56:08;;;;;;;9.38;6.63;;;23.10;62.40;;;;;;4975620;28;20222;-75
2023/06/10 16:58:34;;;;;;;9.60;6.25;;;23.10;62.40;;;;;;4976127;28;20225;-75
2023/06/10 17:01:07;;;;;;;9.68;5.97;;;23.10;62.40;;;;;;4976147;28;20194;-75
2023/06/10 17:03:34;;;;;;;10.05;7.10;;;23.10;62.40;;;;;;4976354;28;20218;-76
2023/06/10 17:06:01;;;;;;;9.93;6.40;;;23.10;62.30;;;;;;4975984;28;20191;-75
2023/06/10 17:08:28;;;;;;;8.07;6.45;;;23.10;62.30;;;;;;4975970;28;20219;-76
2023/06/10 17:10:55;;;;;;;9.95;6.72;;;23.00;62.20;;;;;;4975918;28;20199;-77
2023/06/10 17:13:23;;;;;;;7.78;6.07;;;23.00;62.20;;;;;;4976029;28;20613;-76
2023/06/10 17:15:51;;;;;;;8.88;6.00;;;23.00;62.20;;;;;;4975734;28;20205;-75
2023/06/10 17:18:18;;;;;;;8.55;5.90;;;23.00;62.20;;;;;;4975804;28;20218;-75
2023/06/10 17:20:45;;;;;;;9.45;6.13;;;23.00;62.20;;;;;;4975437;28;20194;-76
2023/06/10 17:23:12;;;;;;;8.40;6.00;;;23.00;62.10;;;;;;4975788;28;20229;-75
2023/06/10 17:25:39;;;;;;;8.30;6.30;;;23.00;62.10;;;;;;4975323;28;20649;-75
2023/06/10 17:28:06;;;;;;;9.07;6.20;;;23.00;62.10;;;;;;4975519;28;20223;-75
2023/06/10 17:30:34;;;;;;;8.52;5.90;;;23.00;62.10;;;;;;4975356;28;20691;-75
2023/06/10 17:33:01;;;;;;;7.10;5.75;;;23.00;62.10;;;;;;4975675;28;20229;-76
2023/06/10 17:35:28;;;;;;;7.68;5.63;;;23.00;62.10;;;;;;4975241;28;20233;-76
2023/06/10 17:37:55;;;;;;;8.00;6.22;;;22.90;62.00;;;;;;4975471;28;20313;-75
2023/06/10 17:40:23;;;;;;;7.20;6.00;;;22.90;62.00;;;;;;4975184;28;20199;-75
2023/06/10 17:42:53;;;;;;;7.82;6.18;;;22.90;61.90;;;;;;4975435;28;20222;-75
2023/06/10 17:45:21;;;;;;;7.35;6.00;;;22.90;61.90;;;;;;4975614;28;20206;-75
2023/06/10 17:47:49;;;;;;;9.82;5.90;;;22.90;61.90;;;;;;4975084;28;20230;-75
2023/06/10 17:50:16;;;;;;;7.43;5.32;;;22.90;61.90;;;;;;4975039;28;20663;-75
2023/06/10 17:52:44;;;;;;;8.40;6.22;;;22.90;61.90;;;;;;4974882;28;20596;-76
2023/06/10 17:55:11;;;;;;;7.03;5.85;;;22.90;61.90;;;;;;4974868;28;20205;-75
2023/06/10 17:57:38;;;;;;;6.65;5.40;;;22.90;61.90;;;;;;4974785;28;20242;-76
2023/06/10 18:00:06;;;;;;;8.52;5.70;;;22.90;61.90;;;;;;4957434;28;20220;-77
2023/06/10 18:02:33;;;;;;;8.50;5.63;;;22.90;61.90;;;;;;4970381;28;20278;-75
2023/06/10 18:05:02;;;;;;;8.30;5.70;;;22.80;61.80;;;;;;4974775;28;20191;-76
2023/06/10 18:07:29;;;;;;;7.60;6.10;;;22.90;61.80;;;;;;4957743;28;20305;-75
2023/06/10 18:09:56;;;;;;;10.00;5.78;;;22.90;61.80;;;;;;4974602;28;20691;-75
2023/06/10 18:12:24;;;;;;;9.93;5.72;;;22.80;61.70;;;;;;4974797;28;20223;-75
2023/06/10 18:14:50;;;;;;;10.30;5.53;;;22.90;62.70;;;;;;4974440;28;20282;-75
2023/06/10 18:17:17;;;;;;;8.07;5.72;;;22.80;61.80;;;;;;4974295;28;20238;-75
2023/06/10 18:19:44;;;;;;;6.80;5.85;;;22.80;61.80;;;;;;4974739;28;20191;-75
2023/06/10 18:22:13;;;;;;;8.27;5.40;;;22.80;61.80;;;;;;4974526;28;20195;-75
2023/06/10 18:24:40;;;;;;;8.15;5.70;;;22.80;61.80;;;;;;4974599;28;20195;-75
2023/06/10 18:27:08;;;;;;;6.68;5.43;;;22.80;61.80;;;;;;4974263;28;20198;-75
2023/06/10 18:29:35;;;;;;;6.72;5.50;;;22.80;61.80;;;;;;4974784;28;20199;-75
2023/06/10 18:32:02;;;;;;;7.50;5.60;;;22.70;61.70;;;;;;4974300;28;20199;-77
2023/06/10 18:34:29;;;;;;;8.25;5.90;;;22.80;61.90;;;;;;4974753;28;20198;-75
2023/06/10 18:36:56;;;;;;;6.18;5.28;;;22.80;61.90;;;;;;4957009;28;20234;-76
2023/06/10 18:39:25;;;;;;;7.72;5.90;;;22.80;61.90;;;;;;4974430;28;20197;-75
2023/06/10 18:41:52;;;;;;;6.93;5.47;;;22.70;61.80;;;;;;4973880;28;20712;-75
2023/06/10 18:44:19;;;;;;;8.63;5.93;;;22.80;61.90;;;;;;4973877;28;20219;-75
2023/06/10 18:46:46;;;;;;;7.45;6.10;;;22.80;61.90;;;;;;4973782;28;20732;-76
2023/06/10 18:49:13;;;;;;;8.45;6.03;;;22.70;61.80;;;;;;4974217;28;20305;-75
2023/06/10 18:51:40;;;;;;;7.90;5.78;;;22.70;61.80;;;;;;4973685;28;20201;-76
2023/06/10 18:54:07;;;;;;;8.02;5.50;;;22.70;61.80;;;;;;4957046;28;20225;-74
2023/06/10 18:56:36;;;;;;;7.72;5.65;;;22.70;61.80;;;;;;4973828;28;20197;-77
2023/06/10 18:59:03;;;;;;;6.80;5.40;;;22.70;61.90;;;;;;4957132;28;20219;-75
2023/06/10 19:01:30;;;;;;;7.53;5.63;;;22.70;61.90;;;;;;4973699;28;20720;-76
2023/06/10 19:03:58;;;;;;;7.10;5.20;;;22.70;61.80;;;;;;4973215;28;20225;-75
2023/06/10 19:06:25;;;;;;;7.25;5.80;;;22.70;61.90;;;;;;4956539;28;20202;-75
2023/06/10 19:08:52;;;;;;;8.23;5.65;;;22.70;61.90;;;;;;4973516;28;20229;-75
2023/06/10 19:11:19;;;;;;;8.23;5.97;;;22.70;61.80;;;;;;4973914;28;20294;-76
2023/06/10 19:13:47;;;;;;;8.07;6.03;;;22.60;61.80;;;;;;4973757;28;20215;-75
2023/06/10 19:16:14;;;;;;;9.25;5.50;;;22.60;61.80;;;;;;4973767;28;20191;-75
2023/06/10 19:18:41;;;;;;;7.82;6.00;;;22.70;61.90;;;;;;4973751;28;20230;-74
2023/06/10 19:21:08;;;;;;;6.72;5.53;;;22.70;61.90;;;;;;4973693;28;20282;-75
2023/06/10 19:23:36;;;;;;;6.97;5.40;;;22.60;61.80;;;;;;4956282;28;20219;-77
2023/06/10 19:26:03;;;;;;;8.05;5.88;;;22.60;61.80;;;;;;4973530;28;20218;-75
2023/06/10 19:28:30;;;;;;;7.80;5.90;;;22.60;61.80;;;;;;4973717;28;20222;-75
2023/06/10 19:30:59;;;;;;;7.78;5.97;;;22.60;61.80;;;;;;4973565;28;20277;-75
2023/06/10 19:33:26;;;;;;;8.02;5.75;;;22.60;62.60;;;;;;4973751;28;20229;-75
2023/06/10 19:35:55;;;;;;;6.90;5.38;;;22.60;61.80;;;;;;4973188;28;20197;-75
2023/06/10 19:38:22;;;;;;;8.60;6.22;;;22.70;62.00;;;;;;4973431;28;20289;-76
2023/06/10 19:40:49;;;;;;;7.30;6.13;;;22.60;61.80;;;;;;4973176;28;20269;-75
2023/06/10 19:43:16;;;;;;;7.22;5.65;;;22.60;61.90;;;;;;4973468;28;20226;-75
2023/06/10 19:45:43;;;;;;;7.22;5.72;;;22.60;61.90;;;;;;4956100;28;20661;-75
2023/06/10 19:48:12;;;;;;;7.68;5.93;;;22.60;61.90;;;;;;4973579;28;20226;-75
2023/06/10 19:50:39;;;;;;;8.32;6.05;;;22.60;62.00;;;;;;4973731;28;20203;-76
2023/06/10 19:53:06;;;;;;;7.90;6.40;;;22.60;62.00;;;;;;4973450;28;20305;-75
2023/06/10 19:55:33;;;;;;;8.85;6.40;;;22.60;62.10;;;;;;4973407;28;20187;-75
2023/06/10 19:58:00;;;;;;;9.52;6.47;;;22.50;62.00;;;;;;4973000;28;20236;-75
2023/06/10 20:00:28;;;;;;;8.73;6.13;;;22.50;62.00;;;;;;4973326;28;20195;-76
2023/06/10 20:02:55;;;;;;;11.07;5.93;;;22.50;61.90;;;;;;4973138;28;20224;-76
2023/06/10 20:05:24;;;;;;;9.73;6.22;;;22.50;61.90;;;;;;4973014;28;20657;-75
2023/06/10 20:07:51;;;;;;;8.95;6.50;;;22.50;62.00;;;;;;4956064;28;20235;-75
2023/06/10 20:10:18;;;;;;;8.77;6.32;;;22.50;62.00;;;;;;4973393;28;20195;-75
2023/06/10 20:12:45;;;;;;;9.35;6.65;;;22.50;62.00;;;;;;4973377;28;20218;-76
2023/06/10 20:15:12;;;;;;;9.05;6.18;;;22.50;62.00;;;;;;4974236;28;20195;-76
2023/06/10 20:17:39;;;;;;;6.97;5.93;;;22.50;62.00;;;;;;4976594;28;20241;-75
2023/06/10 20:20:07;;;;;;;9.50;5.93;;;22.50;62.10;;;;;;4976849;28;20186;-75
2023/06/10 20:22:36;;;;;;;8.85;6.10;;;22.50;62.10;;;;;;4976653;28;20693;-75
2023/06/10 20:25:03;;;;;;;11.40;6.07;;;22.50;62.00;;;;;;4976801;28;20190;-75